Time;durP1;ratioP1;P1;durP2;ratioP2;P2;SDS_P1;SDS_P2;PMS_P1;PMS_P2;Temp;Humidity;BMP_temperature;BMP_pressure;BME280_temperature;BME280_humidity;BME280_pressure;Samples;Min_cycle;Max_cycle;Signal;HPM_P1;HPM_P2
2023/01/25 00:02:13;;;;;;;49.40;23.98;;;0.80;99.90;;;;;;5041150;28;20250;-85
2023/01/25 00:04:39;;;;;;;50.05;25.92;;;0.80;99.90;;;;;;5050031;28;20044;-84
2023/01/25 00:07:04;;;;;;;47.40;24.40;;;0.80;99.90;;;;;;5042293;28;20029;-84
2023/01/25 00:09:30;;;;;;;47.17;22.02;;;0.80;99.90;;;;;;5058980;28;20512;-85
2023/01/25 00:11:57;;;;;;;44.20;21.98;;;0.80;99.90;;;;;;5042289;28;20036;-85
2023/01/25 00:14:23;;;;;;;38.92;19.95;;;0.80;99.90;;;;;;5055530;28;20203;-85
2023/01/25 00:16:49;;;;;;;40.38;20.23;;;0.80;99.90;;;;;;5047337;28;20400;-85
2023/01/25 00:19:15;;;;;;;49.05;23.08;;;0.80;99.90;;;;;;5049400;28;20022;-84
2023/01/25 00:21:41;;;;;;;43.58;23.20;;;0.80;99.90;;;;;;5033132;28;20028;-85
2023/01/25 00:24:07;;;;;;;43.22;20.08;;;0.80;99.90;;;;;;5048310;28;20032;-85
2023/01/25 00:26:33;;;;;;;45.35;23.75;;;0.80;99.90;;;;;;5050110;28;20028;-85
2023/01/25 00:28:59;;;;;;;42.95;21.30;;;0.80;99.90;;;;;;5056263;28;20028;-85
2023/01/25 00:31:32;;;;;;;39.63;20.85;;;0.80;99.90;;;;;;5049478;28;20367;-85
2023/01/25 00:34:24;;;;;;;46.25;22.23;;;0.80;99.90;;;;;;5048734;28;20500;-85
2023/01/25 00:37:02;;;;;;;43.47;20.88;;;0.80;99.90;;;;;;5052714;28;20021;-85
2023/01/25 00:39:28;;;;;;;37.65;18.30;;;0.80;99.90;;;;;;5051114;28;20044;-85
2023/01/25 00:41:54;;;;;;;46.03;23.65;;;0.80;99.90;;;;;;5052344;28;20033;-85
2023/01/25 00:44:20;;;;;;;41.95;20.77;;;0.80;99.90;;;;;;5057096;28;20052;-85
2023/01/25 00:46:45;;;;;;;44.20;20.92;;;0.80;99.90;;;;;;5048583;28;20024;-85
2023/01/25 00:49:23;;;;;;;41.08;21.05;;;0.90;99.90;;;;;;5052268;28;20028;-86
2023/01/25 00:51:50;;;;;;;40.53;19.75;;;0.70;99.90;;;;;;5056706;28;20047;-85
2023/01/25 00:54:16;;;;;;;43.80;20.50;;;0.80;99.90;;;;;;5051027;28;20029;-85
2023/01/25 00:56:42;;;;;;;45.65;22.85;;;0.80;99.90;;;;;;5051575;28;20021;-86
2023/01/25 00:59:10;;;;;;;50.35;24.48;;;0.80;99.90;;;;;;5048754;28;20432;-85
2023/01/25 01:01:36;;;;;;;53.30;25.75;;;0.80;99.90;;;;;;5058631;28;20049;-85
2023/01/25 01:04:01;;;;;;;46.53;22.50;;;0.80;99.90;;;;;;5060978;28;20066;-85
2023/01/25 01:06:27;;;;;;;46.17;22.88;;;0.80;99.90;;;;;;5052505;28;20055;-84
2023/01/25 01:08:53;;;;;;;44.35;21.25;;;0.80;99.90;;;;;;5051961;28;20091;-84
2023/01/25 01:11:21;;;;;;;48.13;24.33;;;0.80;99.90;;;;;;5049620;28;20035;-84
2023/01/25 01:13:47;;;;;;;47.20;21.63;;;0.80;99.90;;;;;;5051694;28;20060;-85
2023/01/25 01:16:13;;;;;;;42.30;21.35;;;0.80;99.90;;;;;;5057239;28;20425;-85
2023/01/25 01:18:41;;;;;;;50.33;22.98;;;0.80;99.90;;;;;;5064501;28;20016;-84
2023/01/25 01:21:07;;;;;;;45.10;22.63;;;0.80;99.90;;;;;;5050608;28;20394;-85
2023/01/25 01:23:34;;;;;;;51.50;23.55;;;0.80;99.90;;;;;;5051205;28;20496;-85
2023/01/25 01:26:04;;;;;;;50.17;23.52;;;0.80;99.90;;;;;;5041439;28;20052;-85
2023/01/25 01:28:31;;;;;;;50.28;23.83;;;0.80;99.90;;;;;;5048064;28;20032;-85
2023/01/25 01:31:01;;;;;;;53.40;26.25;;;0.80;99.90;;;;;;5054815;28;20041;-85
2023/01/25 01:33:27;;;;;;;53.83;25.60;;;0.80;99.90;;;;;;5047507;28;20332;-85
2023/01/25 01:35:52;;;;;;;49.83;23.15;;;0.80;99.90;;;;;;5057781;28;20079;-84
2023/01/25 01:38:18;;;;;;;47.85;24.17;;;0.80;99.90;;;;;;5043296;28;20478;-85
2023/01/25 01:40:48;;;;;;;52.45;24.95;;;0.80;99.90;;;;;;5051296;28;20108;-85
2023/01/25 01:43:22;;;;;;;58.22;27.70;;;0.80;99.90;;;;;;5037180;28;20025;-84
2023/01/25 01:45:48;;;;;;;46.97;22.77;;;0.80;99.90;;;;;;5049691;28;20063;-85
2023/01/25 01:48:22;;;;;;;46.40;22.60;;;0.80;99.90;;;;;;5048901;28;20025;-85
2023/01/25 01:50:53;;;;;;;47.38;22.52;;;0.80;99.90;;;;;;5055884;28;20028;-84
2023/01/25 01:53:23;;;;;;;48.55;24.23;;;0.80;99.90;;;;;;5062825;28;20021;-84
2023/01/25 01:55:50;;;;;;;49.25;22.98;;;0.80;99.90;;;;;;5051666;28;20022;-84
2023/01/25 01:58:15;;;;;;;57.28;25.75;;;0.90;99.90;;;;;;5043102;28;20485;-84
2023/01/25 02:00:41;;;;;;;50.75;25.08;;;0.80;99.90;;;;;;5042793;28;20068;-85
2023/01/25 02:03:08;;;;;;;50.20;25.13;;;0.80;99.90;;;;;;5050798;28;20389;-84
2023/01/25 02:06:00;;;;;;;46.75;22.90;;;0.80;99.90;;;;;;5049379;28;20091;-85
2023/01/25 02:08:28;;;;;;;50.13;23.10;;;0.80;99.90;;;;;;5048117;28;20536;-85
2023/01/25 02:10:54;;;;;;;52.80;25.15;;;0.80;99.90;;;;;;5060781;28;20037;-84
2023/01/25 02:13:20;;;;;;;60.65;24.88;;;0.80;99.90;;;;;;5055875;28;20022;-85
2023/01/25 02:15:50;;;;;;;44.30;22.00;;;0.80;99.90;;;;;;5058783;28;20396;-84
2023/01/25 02:18:17;;;;;;;49.80;22.83;;;0.80;99.90;;;;;;5050275;28;20496;-85
2023/01/25 02:20:46;;;;;;;48.30;22.45;;;0.80;99.90;;;;;;5045823;28;20064;-85
2023/01/25 02:23:46;;;;;;;52.63;24.42;;;0.80;99.90;;;;;;5056167;28;20036;-84
2023/01/25 02:26:12;;;;;;;44.28;22.13;;;0.80;99.90;;;;;;5052833;28;20040;-84
2023/01/25 02:28:49;;;;;;;50.45;23.25;;;0.80;99.90;;;;;;5058205;28;20025;-85
2023/01/25 02:31:16;;;;;;;43.83;20.45;;;0.70;99.90;;;;;;5053897;28;20033;-84
2023/01/25 02:33:41;;;;;;;35.58;17.75;;;0.80;99.90;;;;;;5059686;28;20028;-84
2023/01/25 02:36:07;;;;;;;50.92;21.75;;;0.80;99.90;;;;;;5042648;28;20090;-85
2023/01/25 02:38:36;;;;;;;54.75;23.90;;;0.80;99.90;;;;;;5043470;28;20040;-85
2023/01/25 02:41:17;;;;;;;49.40;22.95;;;0.80;99.90;;;;;;5054124;28;20040;-85
2023/01/25 02:43:42;;;;;;;48.97;23.33;;;0.70;99.90;;;;;;5040136;28;20021;-84
2023/01/25 02:46:16;;;;;;;43.92;20.67;;;0.70;99.90;;;;;;5052318;28;20045;-84
2023/01/25 02:48:42;;;;;;;42.85;21.60;;;0.70;99.90;;;;;;5047831;28;20032;-84
2023/01/25 02:51:09;;;;;;;39.92;18.55;;;0.70;99.90;;;;;;5059408;28;20029;-84
2023/01/25 02:53:35;;;;;;;44.60;22.65;;;0.70;99.90;;;;;;5055242;28;20359;-84
2023/01/25 02:56:01;;;;;;;40.38;20.83;;;0.70;99.90;;;;;;5047282;28;20607;-84
2023/01/25 02:58:27;;;;;;;44.65;20.77;;;0.70;99.90;;;;;;5051627;28;20029;-84
2023/01/25 03:00:53;;;;;;;44.38;20.95;;;0.70;99.90;;;;;;5056805;28;20029;-83
2023/01/25 03:03:19;;;;;;;41.55;20.17;;;0.70;99.90;;;;;;5051746;28;20466;-85
2023/01/25 03:05:44;;;;;;;39.13;20.95;;;0.70;99.90;;;;;;5063930;28;20033;-85
2023/01/25 03:08:10;;;;;;;49.08;22.77;;;0.70;99.90;;;;;;5062328;28;20035;-84
2023/01/25 03:10:35;;;;;;;38.95;20.70;;;0.70;99.90;;;;;;5059717;28;20025;-84
2023/01/25 03:13:01;;;;;;;37.70;18.25;;;0.70;99.90;;;;;;5055552;28;20412;-84
2023/01/25 03:15:27;;;;;;;33.38;16.77;;;0.70;99.90;;;;;;5053000;28;20053;-83
2023/01/25 03:17:54;;;;;;;37.03;19.50;;;0.70;99.90;;;;;;5055764;28;20024;-84
2023/01/25 03:20:19;;;;;;;37.40;18.52;;;0.70;99.90;;;;;;5059912;28;20029;-83
2023/01/25 03:22:45;;;;;;;35.42;18.77;;;0.70;99.90;;;;;;5049006;28;20388;-84
2023/01/25 03:25:11;;;;;;;38.85;17.98;;;0.70;99.90;;;;;;5054999;28;20420;-84
2023/01/25 03:27:36;;;;;;;36.92;17.77;;;0.70;99.90;;;;;;5052314;28;20060;-84
2023/01/25 03:30:02;;;;;;;43.10;21.42;;;0.70;99.90;;;;;;5046000;28;20061;-85
2023/01/25 03:32:28;;;;;;;33.17;18.05;;;0.70;99.90;;;;;;5053127;28;20025;-84
2023/01/25 03:34:54;;;;;;;33.75;17.20;;;0.70;99.90;;;;;;5047613;28;20447;-84
2023/01/25 03:37:20;;;;;;;28.63;15.23;;;0.70;99.90;;;;;;5051468;28;20416;-84
2023/01/25 03:39:46;;;;;;;29.75;15.20;;;0.70;99.90;;;;;;5063092;28;20025;-84
2023/01/25 03:42:12;;;;;;;30.58;17.17;;;0.70;99.90;;;;;;5060239;28;20029;-84
2023/01/25 03:44:37;;;;;;;31.10;15.95;;;0.70;99.90;;;;;;5056549;28;20055;-85
2023/01/25 03:47:03;;;;;;;31.75;15.95;;;0.60;99.90;;;;;;5061183;28;20021;-84
2023/01/25 03:49:32;;;;;;;34.60;16.90;;;0.60;99.90;;;;;;5051539;28;20031;-83
2023/01/25 03:51:57;;;;;;;32.78;16.88;;;0.60;99.90;;;;;;5049220;28;20067;-85
2023/01/25 03:54:23;;;;;;;29.35;16.60;;;0.60;99.90;;;;;;5059134;28;20033;-85
2023/01/25 03:56:48;;;;;;;39.88;17.80;;;0.60;99.90;;;;;;5036632;28;20023;-84
2023/01/25 03:59:14;;;;;;;32.22;15.82;;;0.60;99.90;;;;;;5049303;28;20119;-84
2023/01/25 04:01:40;;;;;;;32.38;16.08;;;0.60;99.90;;;;;;5047056;28;20055;-83
2023/01/25 04:04:05;;;;;;;31.70;16.05;;;0.60;99.90;;;;;;5055539;28;20036;-84
2023/01/25 04:06:31;;;;;;;28.58;15.77;;;0.60;99.90;;;;;;5052008;28;20029;-84
2023/01/25 04:08:57;;;;;;;28.13;14.85;;;0.60;99.90;;;;;;5058627;28;20037;-84
2023/01/25 04:11:22;;;;;;;35.45;16.98;;;0.60;99.90;;;;;;5059076;28;20485;-85
2023/01/25 04:13:48;;;;;;;31.02;15.35;;;0.60;99.90;;;;;;5045003;28;20021;-85
2023/01/25 04:16:16;;;;;;;29.25;13.60;;;0.60;99.90;;;;;;5041152;28;20026;-83
2023/01/25 04:18:42;;;;;;;28.10;14.88;;;0.60;99.90;;;;;;5051909;28;20032;-84
2023/01/25 04:21:07;;;;;;;27.77;14.25;;;0.60;99.90;;;;;;5048345;28;20056;-84
2023/01/25 04:23:33;;;;;;;28.67;14.40;;;0.60;99.90;;;;;;5052767;28;20632;-84
2023/01/25 04:26:02;;;;;;;25.77;14.35;;;0.60;99.90;;;;;;5058575;28;20127;-84
2023/01/25 04:28:28;;;;;;;31.08;15.27;;;0.60;99.90;;;;;;5048606;28;20033;-84
2023/01/25 04:30:55;;;;;;;28.63;16.02;;;0.60;99.90;;;;;;5057585;28;20363;-84
2023/01/25 04:33:20;;;;;;;27.60;14.98;;;0.60;99.90;;;;;;5052623;28;20033;-84
2023/01/25 04:35:46;;;;;;;33.83;13.85;;;0.60;99.90;;;;;;5050528;28;20020;-84
2023/01/25 04:38:12;;;;;;;25.98;13.02;;;0.60;99.90;;;;;;5056821;28;20025;-84
2023/01/25 04:40:38;;;;;;;22.58;11.45;;;0.60;99.90;;;;;;5044635;28;20032;-83
2023/01/25 04:43:07;;;;;;;25.75;13.05;;;0.60;99.90;;;;;;5039167;28;20060;-82
2023/01/25 04:45:34;;;;;;;24.42;12.07;;;0.60;99.90;;;;;;5043571;28;20107;-84
2023/01/25 04:48:02;;;;;;;27.10;13.55;;;0.60;99.90;;;;;;5045846;28;20032;-84
2023/01/25 04:50:33;;;;;;;21.52;11.73;;;0.60;99.90;;;;;;5054170;28;20024;-84
2023/01/25 04:52:59;;;;;;;21.98;11.65;;;0.50;99.90;;;;;;5049020;28;20025;-84
2023/01/25 04:55:29;;;;;;;23.27;12.57;;;0.60;99.90;;;;;;5052309;28;20051;-84
2023/01/25 04:57:55;;;;;;;26.75;12.80;;;0.50;99.90;;;;;;5048821;28;20429;-84
2023/01/25 05:00:27;;;;;;;23.30;12.40;;;0.60;99.90;;;;;;5053700;28;20078;-84
2023/01/25 05:02:53;;;;;;;24.52;12.20;;;0.60;99.90;;;;;;5044139;28;20068;-84
2023/01/25 05:05:19;;;;;;;21.75;11.70;;;0.60;99.90;;;;;;5051019;28;20060;-84
2023/01/25 05:07:44;;;;;;;24.63;14.02;;;0.60;99.90;;;;;;5049666;28;20039;-83
2023/01/25 05:10:10;;;;;;;27.85;14.68;;;0.60;99.90;;;;;;5040038;28;20037;-83
2023/01/25 05:12:36;;;;;;;21.23;12.15;;;0.60;99.90;;;;;;5048023;28;20028;-84
2023/01/25 05:15:01;;;;;;;29.55;14.95;;;0.50;99.90;;;;;;5051757;28;20090;-84
2023/01/25 05:17:27;;;;;;;25.40;13.85;;;0.50;99.90;;;;;;5048243;28;20049;-83
2023/01/25 05:19:56;;;;;;;25.60;13.90;;;0.50;99.90;;;;;;5054146;28;20028;-84
2023/01/25 05:22:21;;;;;;;24.52;13.38;;;0.50;99.90;;;;;;5049003;28;20025;-84
2023/01/25 05:24:48;;;;;;;25.85;13.90;;;0.50;99.90;;;;;;5043011;28;20024;-83
2023/01/25 05:27:16;;;;;;;31.27;15.05;;;0.40;99.90;;;;;;5046182;28;20041;-84
2023/01/25 05:29:43;;;;;;;27.52;13.50;;;0.50;99.90;;;;;;5045047;28;20025;-84
2023/01/25 05:32:10;;;;;;;24.52;13.38;;;0.50;99.90;;;;;;5046779;28;20082;-84
2023/01/25 05:34:36;;;;;;;28.88;15.43;;;0.50;99.90;;;;;;5037353;28;20041;-82
2023/01/25 05:37:03;;;;;;;26.67;14.30;;;0.50;99.90;;;;;;5048846;28;20033;-84
2023/01/25 05:39:32;;;;;;;24.10;13.70;;;0.40;99.90;;;;;;5048390;28;20496;-85
2023/01/25 05:41:58;;;;;;;26.58;13.63;;;0.40;99.90;;;;;;5044427;28;20025;-84
2023/01/25 05:44:27;;;;;;;24.23;12.52;;;0.40;99.90;;;;;;5052069;28;20061;-84
2023/01/25 05:46:52;;;;;;;27.40;14.07;;;0.40;99.90;;;;;;5042533;28;20028;-84
2023/01/25 05:49:18;;;;;;;30.20;14.63;;;0.40;99.90;;;;;;5048082;28;20030;-84
2023/01/25 05:51:45;;;;;;;27.00;13.95;;;0.50;99.90;;;;;;5043765;28;20045;-84
2023/01/25 05:54:15;;;;;;;26.90;13.88;;;0.40;99.90;;;;;;5041217;28;20025;-84
2023/01/25 05:56:42;;;;;;;28.25;14.90;;;0.40;99.90;;;;;;5055290;28;20024;-85
2023/01/25 05:59:10;;;;;;;22.40;12.55;;;0.40;99.90;;;;;;5056683;28;20029;-85
2023/01/25 06:01:35;;;;;;;24.65;13.02;;;0.40;99.90;;;;;;5047424;28;20029;-84
2023/01/25 06:04:01;;;;;;;21.70;11.65;;;0.50;99.90;;;;;;5053072;28;20055;-84
2023/01/25 06:06:27;;;;;;;22.23;11.55;;;0.40;99.90;;;;;;5052932;28;20036;-85
2023/01/25 06:08:52;;;;;;;22.27;12.98;;;0.40;99.90;;;;;;5053511;28;20040;-85
2023/01/25 06:11:21;;;;;;;22.30;12.95;;;0.40;99.90;;;;;;5052512;28;20096;-85
2023/01/25 06:13:47;;;;;;;19.23;12.07;;;0.40;99.90;;;;;;5053400;28;20397;-85
2023/01/25 06:16:13;;;;;;;23.58;12.10;;;0.30;99.90;;;;;;5049216;28;20025;-85
2023/01/25 06:18:39;;;;;;;24.70;12.50;;;0.30;99.90;;;;;;5047414;28;20084;-84
2023/01/25 06:21:05;;;;;;;19.85;11.70;;;0.30;99.90;;;;;;5055586;28;20381;-84
2023/01/25 06:23:31;;;;;;;21.48;12.27;;;0.30;99.90;;;;;;5052057;28;20411;-85
2023/01/25 06:26:06;;;;;;;21.42;12.27;;;0.30;99.90;;;;;;5058356;28;20455;-84
2023/01/25 06:28:33;;;;;;;20.63;11.10;;;0.30;99.90;;;;;;5048797;28;20017;-85
2023/01/25 06:31:13;;;;;;;22.50;12.43;;;0.30;99.90;;;;;;5041274;28;20409;-85
2023/01/25 06:33:40;;;;;;;22.00;12.48;;;0.30;99.90;;;;;;5049839;28;20063;-85
2023/01/25 06:36:12;;;;;;;23.35;12.30;;;0.30;99.90;;;;;;5052195;28;20112;-85
2023/01/25 06:38:38;;;;;;;24.25;13.32;;;0.30;99.90;;;;;;5043361;28;20092;-85
2023/01/25 06:41:06;;;;;;;20.42;11.32;;;0.30;99.90;;;;;;5037588;28;20033;-84
2023/01/25 06:43:32;;;;;;;24.00;13.65;;;0.40;99.90;;;;;;5037900;28;20466;-85
2023/01/25 06:45:59;;;;;;;23.77;13.20;;;0.30;99.90;;;;;;5053698;28;20409;-84
2023/01/25 06:48:26;;;;;;;23.48;12.65;;;0.30;99.90;;;;;;5050629;28;20118;-85
2023/01/25 06:51:06;;;;;;;24.27;13.35;;;0.30;99.90;;;;;;5055795;28;20043;-83
2023/01/25 06:53:34;;;;;;;27.98;15.50;;;0.30;99.90;;;;;;5055113;28;20120;-85
2023/01/25 06:56:08;;;;;;;24.52;12.82;;;0.40;99.90;;;;;;5056033;28;20036;-85
2023/01/25 06:58:34;;;;;;;26.40;13.77;;;0.40;99.90;;;;;;5048505;28;20032;-86
2023/01/25 07:01:11;;;;;;;25.50;13.80;;;0.30;99.90;;;;;;5053506;28;20079;-83
2023/01/25 07:03:37;;;;;;;24.65;14.43;;;0.30;99.90;;;;;;5052169;28;20079;-85
2023/01/25 07:06:04;;;;;;;31.20;15.98;;;0.30;99.90;;;;;;5055608;28;20044;-85
2023/01/25 07:08:32;;;;;;;28.75;15.25;;;0.30;99.90;;;;;;5048758;28;20029;-84
2023/01/25 07:11:00;;;;;;;24.58;14.25;;;0.30;99.90;;;;;;5053481;28;20530;-85
2023/01/25 07:13:27;;;;;;;26.70;15.35;;;0.30;99.90;;;;;;5054527;28;20385;-83
2023/01/25 07:15:58;;;;;;;28.63;15.35;;;0.30;99.90;;;;;;5048234;28;20036;-83
2023/01/25 07:18:25;;;;;;;26.42;14.35;;;0.30;99.90;;;;;;5043876;28;20341;-85
2023/01/25 07:20:50;;;;;;;25.92;13.55;;;0.30;99.90;;;;;;5052012;28;20025;-84
2023/01/25 07:23:16;;;;;;;32.63;15.55;;;0.20;99.90;;;;;;5050805;28;20044;-83
2023/01/25 07:25:46;;;;;;;27.25;15.43;;;0.20;99.90;;;;;;5056198;28;20044;-83
2023/01/25 07:28:12;;;;;;;31.77;15.55;;;0.20;99.90;;;;;;5052458;28;20017;-84
2023/01/25 07:30:40;;;;;;;28.70;14.52;;;0.10;99.90;;;;;;5048380;28;20036;-85
2023/01/25 07:33:06;;;;;;;35.35;15.82;;;0.10;99.90;;;;;;5053868;28;20056;-85
2023/01/25 07:35:32;;;;;;;25.02;14.60;;;0.10;99.90;;;;;;5057260;28;20478;-84
2023/01/25 07:37:58;;;;;;;32.13;16.80;;;0.10;99.90;;;;;;5045536;28;20038;-85
2023/01/25 07:40:24;;;;;;;27.45;14.77;;;0.10;99.90;;;;;;5046491;28;20059;-84
2023/01/25 07:42:52;;;;;;;26.38;13.77;;;0.10;99.90;;;;;;5050091;28;20047;-87
2023/01/25 07:45:18;;;;;;;26.90;13.80;;;0.20;99.90;;;;;;5054592;28;20045;-85
2023/01/25 07:47:44;;;;;;;36.60;19.45;;;0.20;99.90;;;;;;5048006;28;20052;-85
2023/01/25 07:50:10;;;;;;;29.45;17.60;;;0.20;99.90;;;;;;5049182;28;20072;-83
2023/01/25 07:52:37;;;;;;;35.80;19.83;;;0.20;99.90;;;;;;5048324;28;20029;-85
2023/01/25 07:55:03;;;;;;;31.33;15.75;;;0.20;99.90;;;;;;5053187;28;20120;-83
2023/01/25 07:57:28;;;;;;;27.73;15.00;;;0.20;99.90;;;;;;5057738;28;20103;-84
2023/01/25 07:59:54;;;;;;;21.17;12.02;;;0.20;99.90;;;;;;5048839;28;20136;-84
2023/01/25 08:02:22;;;;;;;22.88;13.13;;;0.20;99.90;;;;;;5049653;28;20082;-84
2023/01/25 08:04:50;;;;;;;25.98;14.93;;;0.20;99.90;;;;;;5052210;28;20024;-85
2023/01/25 08:07:15;;;;;;;24.90;15.63;;;0.20;99.90;;;;;;5055181;28;20044;-84
2023/01/25 08:09:41;;;;;;;23.67;13.65;;;0.20;99.90;;;;;;5055792;28;20317;-84
2023/01/25 08:12:07;;;;;;;28.95;15.85;;;0.20;99.90;;;;;;5053866;28;20350;-84
2023/01/25 08:14:33;;;;;;;20.73;12.50;;;0.30;99.90;;;;;;5065190;28;20078;-84
2023/01/25 08:16:58;;;;;;;24.17;13.00;;;0.30;99.90;;;;;;5049345;28;20176;-84
2023/01/25 08:19:25;;;;;;;26.42;14.43;;;0.30;99.90;;;;;;5056282;28;20339;-84
2023/01/25 08:21:50;;;;;;;26.50;15.05;;;0.30;99.90;;;;;;5055705;28;20025;-84
2023/01/25 08:24:16;;;;;;;26.65;15.13;;;0.30;99.90;;;;;;5047652;28;20370;-84
2023/01/25 08:26:42;;;;;;;22.50;13.30;;;0.30;99.90;;;;;;5066960;28;20031;-85
2023/01/25 08:29:10;;;;;;;22.92;14.10;;;0.30;99.90;;;;;;5055626;28;20033;-83
2023/01/25 08:31:36;;;;;;;20.50;11.32;;;0.30;99.90;;;;;;5041538;28;20021;-84
2023/01/25 08:34:02;;;;;;;18.92;11.27;;;0.30;99.90;;;;;;5058693;28;20032;-85
2023/01/25 08:36:28;;;;;;;22.27;11.38;;;0.30;99.90;;;;;;5053513;28;20029;-85
2023/01/25 08:38:59;;;;;;;19.75;11.80;;;0.30;99.90;;;;;;5050910;28;20028;-84
2023/01/25 08:41:27;;;;;;;27.98;16.58;;;0.30;99.90;;;;;;5051997;28;20462;-84
2023/01/25 08:43:54;;;;;;;30.70;16.42;;;0.40;99.90;;;;;;5049508;28;20032;-85
2023/01/25 08:46:20;;;;;;;26.95;14.40;;;0.30;99.90;;;;;;5061002;28;20036;-85
2023/01/25 08:48:46;;;;;;;29.08;15.00;;;0.30;99.90;;;;;;5037272;28;20028;-84
2023/01/25 08:51:13;;;;;;;22.88;13.75;;;0.40;99.90;;;;;;5049653;28;20043;-84
2023/01/25 08:53:39;;;;;;;21.38;13.43;;;0.40;99.90;;;;;;5050310;28;20108;-84
2023/01/25 08:56:07;;;;;;;29.17;15.75;;;0.40;99.90;;;;;;5056298;28;20407;-85
2023/01/25 08:58:33;;;;;;;26.30;14.30;;;0.40;99.90;;;;;;5059780;28;20071;-84
2023/01/25 09:01:04;;;;;;;24.17;13.50;;;0.40;99.90;;;;;;5057745;28;20334;-84
2023/01/25 09:03:30;;;;;;;26.75;12.68;;;0.40;99.90;;;;;;5053052;28;20048;-84
2023/01/25 09:05:56;;;;;;;23.67;13.93;;;0.40;99.90;;;;;;5053943;28;20033;-85
2023/01/25 09:08:21;;;;;;;29.92;16.70;;;0.40;99.90;;;;;;5058107;28;20032;-85
2023/01/25 09:10:47;;;;;;;25.00;13.38;;;0.40;99.90;;;;;;5056712;28;20020;-85
2023/01/25 09:13:13;;;;;;;24.75;15.20;;;0.50;99.90;;;;;;5058295;28;20017;-85
2023/01/25 09:15:39;;;;;;;29.65;16.08;;;0.50;99.90;;;;;;5051620;28;20025;-84
2023/01/25 09:18:05;;;;;;;26.90;15.10;;;0.50;99.90;;;;;;5048566;28;20029;-85
2023/01/25 09:20:30;;;;;;;25.90;14.52;;;0.50;99.90;;;;;;5057585;28;20430;-85
2023/01/25 09:22:56;;;;;;;25.98;15.20;;;0.50;99.90;;;;;;5045562;28;20028;-85
2023/01/25 09:25:22;;;;;;;26.05;14.40;;;0.50;99.90;;;;;;5062917;28;20055;-84
2023/01/25 09:27:50;;;;;;;27.45;14.00;;;0.50;99.90;;;;;;5045085;28;20377;-85
2023/01/25 09:30:17;;;;;;;24.98;13.70;;;0.50;99.90;;;;;;5044260;28;20402;-85
2023/01/25 09:32:43;;;;;;;25.42;14.43;;;0.50;99.90;;;;;;5054651;28;20027;-84
2023/01/25 09:35:08;;;;;;;26.83;14.45;;;0.50;99.90;;;;;;5052379;28;20024;-84
2023/01/25 09:37:34;;;;;;;25.35;13.25;;;0.50;99.90;;;;;;5058296;28;20070;-85
2023/01/25 09:40:03;;;;;;;21.05;11.35;;;0.40;99.90;;;;;;5054243;28;20135;-83
2023/01/25 09:42:46;;;;;;;20.73;10.88;;;0.50;99.90;;;;;;5040679;28;20366;-85
2023/01/25 09:45:32;;;;;;;19.77;10.60;;;0.50;99.90;;;;;;5058033;28;20540;-84
2023/01/25 09:48:18;;;;;;;;;;;0.50;99.90;;;;;;5057153;28;20029;-85
2023/01/25 09:51:03;;;;;;;21.85;11.13;;;0.50;99.90;;;;;;5053146;28;19904;-84
2023/01/25 09:53:37;;;;;;;21.37;12.17;;;0.60;99.90;;;;;;5058957;28;20450;-84
2023/01/25 09:56:08;;;;;;;17.58;10.00;;;0.60;99.90;;;;;;5054520;28;20440;-85
2023/01/25 09:58:43;;;;;;;22.42;11.68;;;0.60;99.90;;;;;;5061245;28;20020;-84
2023/01/25 10:01:17;;;;;;;21.30;12.63;;;0.60;99.90;;;;;;5054803;28;20025;-83
2023/01/25 10:04:09;;;;;;;23.10;13.07;;;0.60;99.90;;;;;;5058142;28;20024;-85
2023/01/25 10:06:44;;;;;;;26.38;14.10;;;0.60;99.90;;;;;;5060159;28;20342;-85
2023/01/25 10:09:46;;;;;;;22.23;13.25;;;0.60;99.90;;;;;;5053559;28;20052;-83
2023/01/25 10:12:18;;;;;;;23.02;13.55;;;0.60;99.90;;;;;;5051185;28;20039;-85
2023/01/25 10:14:43;;;;;;;25.67;14.20;;;0.60;99.90;;;;;;5062168;28;20333;-85
2023/01/25 10:17:34;;;;;;;25.15;14.00;;;0.60;99.90;;;;;;5054774;28;20047;-84
2023/01/25 10:20:08;;;;;;;24.08;13.02;;;0.60;99.90;;;;;;5043533;28;20040;-85
2023/01/25 10:22:42;;;;;;;24.33;13.35;;;0.60;99.90;;;;;;5054421;28;20469;-85
2023/01/25 10:25:39;;;;;;;22.23;11.82;;;0.60;99.90;;;;;;5055060;28;20082;-85
2023/01/25 10:28:46;;;;;;;21.48;11.82;;;0.60;99.90;;;;;;5068471;28;20053;-84
2023/01/25 10:31:38;;;;;;;21.42;12.18;;;0.60;99.90;;;;;;5066251;28;20036;-85
2023/01/25 10:34:19;;;;;;;22.85;11.98;;;0.60;99.90;;;;;;5049841;28;20123;-85
2023/01/25 10:36:49;;;;;;;18.30;10.82;;;0.50;99.90;;;;;;5066966;28;20012;-85
2023/01/25 10:39:16;;;;;;;20.50;11.05;;;0.50;99.90;;;;;;5058334;28;20071;-85
2023/01/25 10:41:56;;;;;;;22.40;12.25;;;0.50;99.90;;;;;;5061409;28;20055;-83
2023/01/25 10:45:15;;;;;;;;;;;0.50;99.90;;;;;;5080450;27;20168;-85
2023/01/25 10:47:48;;;;;;;21.17;11.57;;;0.50;99.90;;;;;;5074191;28;19918;-86
2023/01/25 10:50:42;;;;;;;20.10;11.45;;;0.60;99.90;;;;;;5065253;28;20029;-85
2023/01/25 10:53:22;;;;;;;21.67;12.43;;;0.50;99.90;;;;;;5073543;28;20056;-85
2023/01/25 10:56:19;;;;;;;22.00;12.60;;;0.50;99.90;;;;;;5084733;28;20025;-86
2023/01/25 10:58:48;;;;;;;22.42;11.98;;;0.50;99.90;;;;;;5083307;28;20039;-86
2023/01/25 11:01:35;;;;;;;20.02;10.88;;;0.50;99.90;;;;;;5084576;28;20047;-86
2023/01/25 11:04:01;;;;;;;20.95;11.85;;;0.50;99.90;;;;;;5085031;28;20036;-85
2023/01/25 11:06:33;;;;;;;24.98;13.00;;;0.50;99.90;;;;;;5086581;28;20025;-85
2023/01/25 11:09:21;;;;;;;22.33;12.68;;;0.60;99.90;;;;;;5085424;28;20063;-85
2023/01/25 11:12:17;;;;;;;23.17;12.80;;;0.60;99.90;;;;;;5075779;28;20051;-86
2023/01/25 11:14:43;;;;;;;20.15;11.75;;;0.60;99.90;;;;;;5076502;28;20074;-85
2023/01/25 11:17:29;;;;;;;21.98;12.05;;;0.60;99.90;;;;;;5080152;28;20058;-85
2023/01/25 11:20:19;;;;;;;24.27;14.13;;;0.60;99.90;;;;;;5083118;28;20016;-85
2023/01/25 11:22:54;;;;;;;19.52;11.68;;;0.60;99.90;;;;;;5080215;28;20024;-84
2023/01/25 11:25:28;;;;;;;21.77;12.27;;;0.60;99.90;;;;;;5084241;28;20101;-84
2023/01/25 11:28:15;;;;;;;18.05;11.52;;;0.60;99.90;;;;;;5083120;28;20025;-85
2023/01/25 11:30:41;;;;;;;22.05;12.63;;;0.60;99.90;;;;;;5081504;28;20036;-85
2023/01/25 11:33:15;;;;;;;21.02;11.32;;;0.60;99.90;;;;;;5079353;28;20032;-85
2023/01/25 11:36:23;;;;;;;20.52;12.65;;;0.70;99.90;;;;;;5081755;28;20059;-85
2023/01/25 11:39:04;;;;;;;23.63;12.57;;;0.70;99.90;;;;;;5068567;28;20040;-84
2023/01/25 11:41:51;;;;;;;18.77;11.80;;;0.70;99.90;;;;;;5082523;28;20038;-85
2023/01/25 11:44:32;;;;;;;18.88;11.40;;;0.70;99.90;;;;;;5072307;28;20056;-85
2023/01/25 11:47:26;;;;;;;22.67;12.85;;;0.70;99.90;;;;;;5083156;28;20024;-86
2023/01/25 11:50:26;;;;;;;25.83;13.35;;;0.70;99.90;;;;;;5076517;28;20115;-85
2023/01/25 11:52:57;;;;;;;21.65;12.27;;;0.70;99.90;;;;;;5082315;28;20050;-85
2023/01/25 11:56:00;;;;;;;20.58;12.55;;;0.70;99.90;;;;;;5061638;28;20454;-85
2023/01/25 11:59:00;;;;;;;26.98;14.05;;;0.70;99.90;;;;;;5051000;28;20121;-84
2023/01/25 12:02:03;;;;;;;22.35;12.82;;;0.70;99.90;;;;;;5055679;28;20031;-86
2023/01/25 12:04:44;;;;;;;22.42;13.13;;;0.70;99.90;;;;;;5064212;28;20032;-85
2023/01/25 12:07:29;;;;;;;22.75;13.65;;;0.80;99.90;;;;;;5062868;28;20028;-85
2023/01/25 12:10:20;;;;;;;24.38;14.65;;;0.70;99.90;;;;;;5067341;28;20037;-85
2023/01/25 12:13:12;;;;;;;24.15;12.88;;;0.80;99.90;;;;;;5062274;28;20035;-85
2023/01/25 12:15:49;;;;;;;22.73;12.95;;;0.80;99.90;;;;;;5064851;28;20083;-86
2023/01/25 12:18:41;;;;;;;18.52;11.68;;;0.80;99.90;;;;;;5057569;28;20044;-85
2023/01/25 12:21:28;;;;;;;19.92;11.98;;;0.80;99.90;;;;;;5064469;28;20039;-85
2023/01/25 12:24:12;;;;;;;18.75;11.73;;;0.80;99.90;;;;;;5060862;28;20053;-85
2023/01/25 12:26:41;;;;;;;29.38;12.77;;;0.80;99.90;;;;;;5056438;28;20032;-85
2023/01/25 12:29:23;;;;;;;22.70;13.38;;;0.90;99.90;;;;;;5059214;28;20024;-85
2023/01/25 12:32:10;;;;;;;25.70;14.15;;;0.80;99.90;;;;;;5062540;28;20027;-85
2023/01/25 12:34:39;;;;;;;30.05;15.93;;;0.90;99.90;;;;;;5058910;28;20363;-86
2023/01/25 12:37:34;;;;;;;23.40;14.02;;;0.80;99.90;;;;;;5059798;28;20086;-85
2023/01/25 12:40:10;;;;;;;26.02;14.38;;;0.80;99.90;;;;;;5059493;28;20037;-85
2023/01/25 12:42:43;;;;;;;26.33;15.23;;;0.80;99.90;;;;;;5059873;28;20016;-85
2023/01/25 12:45:21;;;;;;;26.88;16.50;;;0.90;99.90;;;;;;5055209;28;20128;-85
2023/01/25 12:47:55;;;;;;;23.77;14.10;;;0.80;99.90;;;;;;5061864;28;20017;-86
2023/01/25 12:50:30;;;;;;;27.52;14.40;;;0.90;99.90;;;;;;5052907;28;20027;-86
2023/01/25 12:53:03;;;;;;;23.70;14.15;;;0.90;99.90;;;;;;5053163;28;20074;-85
2023/01/25 12:55:29;;;;;;;22.92;12.90;;;0.90;99.90;;;;;;5051190;28;20017;-85
2023/01/25 12:58:11;;;;;;;24.95;13.45;;;0.90;99.90;;;;;;5059290;28;20035;-85